sensor_id;sensor_type;location;lat;lon;timestamp;temperature;humidity
69031;DHT22;56083;48.774;8.942;2023-05-07T00:02:25;11.20;99.90
69031;DHT22;56083;48.774;8.942;2023-05-07T00:04:51;11.20;99.90
69031;DHT22;56083;48.774;8.942;2023-05-07T00:07:17;11.10;99.90
69031;DHT22;56083;48.774;8.942;2023-05-07T00:09:43;11.10;99.90
69031;DHT22;56083;48.774;8.942;2023-05-07T00:12:09;11.10;99.90
69031;DHT22;56083;48.774;8.942;2023-05-07T00:14:35;11.10;99.90
69031;DHT22;56083;48.774;8.942;2023-05-07T00:17:00;11.10;99.90
69031;DHT22;56083;48.774;8.942;2023-05-07T00:19:26;11.10;99.90
69031;DHT22;56083;48.774;8.942;2023-05-07T00:21:52;11.00;99.90
69031;DHT22;56083;48.774;8.942;2023-05-07T00:24:19;11.00;99.90
69031;DHT22;56083;48.774;8.942;2023-05-07T00:26:45;11.00;99.90
69031;DHT22;56083;48.774;8.942;2023-05-07T00:29:10;11.00;99.90
69031;DHT22;56083;48.774;8.942;2023-05-07T00:31:36;11.00;99.90
69031;DHT22;56083;48.774;8.942;2023-05-07T00:34:02;11.00;99.90
69031;DHT22;56083;48.774;8.942;2023-05-07T00:36:27;10.90;99.90
69031;DHT22;56083;48.774;8.942;2023-05-07T00:38:56;10.90;99.90
69031;DHT22;56083;48.774;8.942;2023-05-07T00:41:24;10.90;99.90
69031;DHT22;56083;48.774;8.942;2023-05-07T00:43:50;10.90;99.90
69031;DHT22;56083;48.774;8.942;2023-05-07T00:46:17;10.90;99.90
69031;DHT22;56083;48.774;8.942;2023-05-07T00:48:42;10.90;99.90
69031;DHT22;56083;48.774;8.942;2023-05-07T00:51:10;10.80;99.90
69031;DHT22;56083;48.774;8.942;2023-05-07T00:53:36;10.80;99.90
69031;DHT22;56083;48.774;8.942;2023-05-07T00:56:02;10.80;99.90
69031;DHT22;56083;48.774;8.942;2023-05-07T00:58:28;10.80;99.90
69031;DHT22;56083;48.774;8.942;2023-05-07T01:00:54;10.90;99.90
69031;DHT22;56083;48.774;8.942;2023-05-07T01:03:20;10.90;99.90
69031;DHT22;56083;48.774;8.942;2023-05-07T01:05:47;10.90;99.90
69031;DHT22;56083;48.774;8.942;2023-05-07T01:08:14;10.90;99.90
69031;DHT22;56083;48.774;8.942;2023-05-07T01:10:40;10.90;99.90
69031;DHT22;56083;48.774;8.942;2023-05-07T01:13:11;10.90;99.90
69031;DHT22;56083;48.774;8.942;2023-05-07T01:15:38;10.80;99.90
69031;DHT22;56083;48.774;8.942;2023-05-07T01:18:04;10.80;99.90
69031;DHT22;56083;48.774;8.942;2023-05-07T01:20:30;10.80;99.90
69031;DHT22;56083;48.774;8.942;2023-05-07T01:22:56;10.80;99.90
69031;DHT22;56083;48.774;8.942;2023-05-07T01:25:22;10.80;99.90
69031;DHT22;56083;48.774;8.942;2023-05-07T01:27:48;10.80;99.90
69031;DHT22;56083;48.774;8.942;2023-05-07T01:30:14;10.70;99.90
69031;DHT22;56083;48.774;8.942;2023-05-07T01:32:45;10.80;99.90
69031;DHT22;56083;48.774;8.942;2023-05-07T01:35:17;10.80;99.90
69031;DHT22;56083;48.774;8.942;2023-05-07T01:37:43;10.80;99.90
69031;DHT22;56083;48.774;8.942;2023-05-07T01:40:10;10.70;99.90
69031;DHT22;56083;48.774;8.942;2023-05-07T01:42:36;10.70;99.90
69031;DHT22;56083;48.774;8.942;2023-05-07T01:45:02;10.70;99.90
69031;DHT22;56083;48.774;8.942;2023-05-07T01:47:27;10.70;99.90
69031;DHT22;56083;48.774;8.942;2023-05-07T01:49:55;10.70;99.90
69031;DHT22;56083;48.774;8.942;2023-05-07T01:52:20;10.70;99.90
69031;DHT22;56083;48.774;8.942;2023-05-07T01:54:46;10.70;99.90
69031;DHT22;56083;48.774;8.942;2023-05-07T01:57:12;10.70;99.90
69031;DHT22;56083;48.774;8.942;2023-05-07T01:59:37;10.80;99.90
69031;DHT22;56083;48.774;8.942;2023-05-07T02:02:03;10.70;99.90
69031;DHT22;56083;48.774;8.942;2023-05-07T02:04:28;10.70;99.90
69031;DHT22;56083;48.774;8.942;2023-05-07T02:06:54;10.70;99.90
69031;DHT22;56083;48.774;8.942;2023-05-07T02:09:19;10.70;99.90
69031;DHT22;56083;48.774;8.942;2023-05-07T02:11:45;10.70;99.90
69031;DHT22;56083;48.774;8.942;2023-05-07T02:14:11;10.60;99.90
69031;DHT22;56083;48.774;8.942;2023-05-07T02:16:36;10.60;99.90
69031;DHT22;56083;48.774;8.942;2023-05-07T02:19:03;10.60;99.90
69031;DHT22;56083;48.774;8.942;2023-05-07T02:21:29;10.60;99.90
69031;DHT22;56083;48.774;8.942;2023-05-07T02:23:54;10.50;99.90
69031;DHT22;56083;48.774;8.942;2023-05-07T02:26:20;10.60;99.90
69031;DHT22;56083;48.774;8.942;2023-05-07T02:28:46;10.50;99.90
69031;DHT22;56083;48.774;8.942;2023-05-07T02:31:12;10.50;99.90
69031;DHT22;56083;48.774;8.942;2023-05-07T02:33:38;10.40;99.90
69031;DHT22;56083;48.774;8.942;2023-05-07T02:36:10;10.40;99.90
69031;DHT22;56083;48.774;8.942;2023-05-07T02:38:35;10.30;99.90
69031;DHT22;56083;48.774;8.942;2023-05-07T02:41:01;10.30;99.90
69031;DHT22;56083;48.774;8.942;2023-05-07T02:43:27;10.30;99.90
69031;DHT22;56083;48.774;8.942;2023-05-07T02:46:07;10.20;99.90
69031;DHT22;56083;48.774;8.942;2023-05-07T02:48:32;10.10;99.90
69031;DHT22;56083;48.774;8.942;2023-05-07T02:50:59;10.00;99.90
69031;DHT22;56083;48.774;8.942;2023-05-07T02:53:25;10.00;99.90
69031;DHT22;56083;48.774;8.942;2023-05-07T02:55:59;9.90;99.90
69031;DHT22;56083;48.774;8.942;2023-05-07T02:58:26;9.90;99.90
69031;DHT22;56083;48.774;8.942;2023-05-07T03:00:52;9.80;99.90
69031;DHT22;56083;48.774;8.942;2023-05-07T03:03:18;9.80;99.90
69031;DHT22;56083;48.774;8.942;2023-05-07T03:05:45;9.70;99.90
69031;DHT22;56083;48.774;8.942;2023-05-07T03:08:10;9.70;99.90
69031;DHT22;56083;48.774;8.942;2023-05-07T03:10:36;9.70;99.90
69031;DHT22;56083;48.774;8.942;2023-05-07T03:13:02;9.70;99.90
69031;DHT22;56083;48.774;8.942;2023-05-07T03:15:28;9.70;99.90
69031;DHT22;56083;48.774;8.942;2023-05-07T03:17:54;9.60;99.90
69031;DHT22;56083;48.774;8.942;2023-05-07T03:20:19;9.60;99.90
69031;DHT22;56083;48.774;8.942;2023-05-07T03:22:45;9.60;99.90
69031;DHT22;56083;48.774;8.942;2023-05-07T03:25:10;9.50;99.90
69031;DHT22;56083;48.774;8.942;2023-05-07T03:27:36;9.60;99.90
69031;DHT22;56083;48.774;8.942;2023-05-07T03:30:02;9.60;99.90
69031;DHT22;56083;48.774;8.942;2023-05-07T03:32:28;9.60;99.90
69031;DHT22;56083;48.774;8.942;2023-05-07T03:34:53;9.60;99.90
69031;DHT22;56083;48.774;8.942;2023-05-07T03:37:19;9.70;99.90
69031;DHT22;56083;48.774;8.942;2023-05-07T03:39:45;9.70;99.90
69031;DHT22;56083;48.774;8.942;2023-05-07T03:42:10;9.70;99.90
69031;DHT22;56083;48.774;8.942;2023-05-07T03:44:36;9.70;99.90
69031;DHT22;56083;48.774;8.942;2023-05-07T03:47:04;9.70;99.90
69031;DHT22;56083;48.774;8.942;2023-05-07T03:49:29;9.60;99.90
69031;DHT22;56083;48.774;8.942;2023-05-07T03:51:55;9.70;99.90
69031;DHT22;56083;48.774;8.942;2023-05-07T03:54:21;9.60;99.90
69031;DHT22;56083;48.774;8.942;2023-05-07T03:56:46;9.50;99.90
69031;DHT22;56083;48.774;8.942;2023-05-07T03:59:13;9.40;99.90
69031;DHT22;56083;48.774;8.942;2023-05-07T04:01:38;9.30;99.90
69031;DHT22;56083;48.774;8.942;2023-05-07T04:04:04;9.40;99.90
69031;DHT22;56083;48.774;8.942;2023-05-07T04:06:30;9.30;99.90
69031;DHT22;56083;48.774;8.942;2023-05-07T04:08:56;9.30;99.90
69031;DHT22;56083;48.774;8.942;2023-05-07T04:11:22;9.40;99.90
69031;DHT22;56083;48.774;8.942;2023-05-07T04:13:47;9.40;99.90
69031;DHT22;56083;48.774;8.942;2023-05-07T04:16:13;9.40;99.90
69031;DHT22;56083;48.774;8.942;2023-05-07T04:18:38;9.40;99.90
69031;DHT22;56083;48.774;8.942;2023-05-07T04:21:05;9.40;99.90
69031;DHT22;56083;48.774;8.942;2023-05-07T04:23:30;9.40;99.90
69031;DHT22;56083;48.774;8.942;2023-05-07T04:25:56;9.50;99.90
69031;DHT22;56083;48.774;8.942;2023-05-07T04:28:22;9.50;99.90
69031;DHT22;56083;48.774;8.942;2023-05-07T04:30:49;9.50;99.90
69031;DHT22;56083;48.774;8.942;2023-05-07T04:33:16;9.50;99.90
69031;DHT22;56083;48.774;8.942;2023-05-07T04:35:42;9.50;99.90
69031;DHT22;56083;48.774;8.942;2023-05-07T04:38:08;9.50;99.90
69031;DHT22;56083;48.774;8.942;2023-05-07T04:40:35;9.50;99.90
69031;DHT22;56083;48.774;8.942;2023-05-07T04:43:01;9.50;99.90
69031;DHT22;56083;48.774;8.942;2023-05-07T04:45:27;9.60;99.90
69031;DHT22;56083;48.774;8.942;2023-05-07T04:47:52;9.60;99.90
69031;DHT22;56083;48.774;8.942;2023-05-07T04:50:18;9.50;99.90
69031;DHT22;56083;48.774;8.942;2023-05-07T04:52:45;9.60;99.90
69031;DHT22;56083;48.774;8.942;2023-05-07T04:55:10;9.60;99.90
69031;DHT22;56083;48.774;8.942;2023-05-07T04:57:36;9.70;99.90
69031;DHT22;56083;48.774;8.942;2023-05-07T05:00:05;9.80;99.90
69031;DHT22;56083;48.774;8.942;2023-05-07T05:02:31;9.90;99.90
69031;DHT22;56083;48.774;8.942;2023-05-07T05:04:56;9.90;99.90
69031;DHT22;56083;48.774;8.942;2023-05-07T05:07:22;10.00;99.90
69031;DHT22;56083;48.774;8.942;2023-05-07T05:09:47;10.10;99.90
69031;DHT22;56083;48.774;8.942;2023-05-07T05:12:13;10.20;99.90
69031;DHT22;56083;48.774;8.942;2023-05-07T05:14:38;10.30;99.90
69031;DHT22;56083;48.774;8.942;2023-05-07T05:17:04;10.40;99.90
69031;DHT22;56083;48.774;8.942;2023-05-07T05:19:30;10.50;99.90
69031;DHT22;56083;48.774;8.942;2023-05-07T05:21:55;10.70;99.90
69031;DHT22;56083;48.774;8.942;2023-05-07T05:24:21;10.90;99.90
69031;DHT22;56083;48.774;8.942;2023-05-07T05:26:47;11.10;99.90
69031;DHT22;56083;48.774;8.942;2023-05-07T05:29:12;11.30;99.90
69031;DHT22;56083;48.774;8.942;2023-05-07T05:31:38;11.50;99.90
69031;DHT22;56083;48.774;8.942;2023-05-07T05:34:03;11.50;99.90
69031;DHT22;56083;48.774;8.942;2023-05-07T05:36:29;11.70;99.90
69031;DHT22;56083;48.774;8.942;2023-05-07T05:38:55;11.80;99.90
69031;DHT22;56083;48.774;8.942;2023-05-07T05:41:21;11.90;99.90
69031;DHT22;56083;48.774;8.942;2023-05-07T05:43:47;12.00;99.90
69031;DHT22;56083;48.774;8.942;2023-05-07T05:46:12;12.20;99.90
69031;DHT22;56083;48.774;8.942;2023-05-07T05:48:38;12.40;99.90
69031;DHT22;56083;48.774;8.942;2023-05-07T05:51:03;12.70;99.90
69031;DHT22;56083;48.774;8.942;2023-05-07T05:53:29;12.80;99.90
69031;DHT22;56083;48.774;8.942;2023-05-07T05:55:55;13.00;99.90
69031;DHT22;56083;48.774;8.942;2023-05-07T05:58:20;13.20;99.90
69031;DHT22;56083;48.774;8.942;2023-05-07T06:00:46;13.40;99.90
69031;DHT22;56083;48.774;8.942;2023-05-07T06:03:13;13.70;99.90
69031;DHT22;56083;48.774;8.942;2023-05-07T06:05:39;13.80;99.90
69031;DHT22;56083;48.774;8.942;2023-05-07T06:08:05;13.90;99.90
69031;DHT22;56083;48.774;8.942;2023-05-07T06:10:30;14.00;99.90
69031;DHT22;56083;48.774;8.942;2023-05-07T06:12:56;14.10;99.90
69031;DHT22;56083;48.774;8.942;2023-05-07T06:15:22;14.20;99.90
69031;DHT22;56083;48.774;8.942;2023-05-07T06:17:48;14.40;99.90
69031;DHT22;56083;48.774;8.942;2023-05-07T06:20:14;14.50;99.90
69031;DHT22;56083;48.774;8.942;2023-05-07T06:22:40;14.60;99.90
69031;DHT22;56083;48.774;8.942;2023-05-07T06:25:06;14.70;99.90
69031;DHT22;56083;48.774;8.942;2023-05-07T06:27:32;14.80;99.90
69031;DHT22;56083;48.774;8.942;2023-05-07T06:29:57;14.90;99.90
69031;DHT22;56083;48.774;8.942;2023-05-07T06:32:23;15.00;99.90
69031;DHT22;56083;48.774;8.942;2023-05-07T06:34:49;15.10;99.90
69031;DHT22;56083;48.774;8.942;2023-05-07T06:37:14;15.20;99.90
69031;DHT22;56083;48.774;8.942;2023-05-07T06:39:40;15.50;99.90
69031;DHT22;56083;48.774;8.942;2023-05-07T06:42:06;15.80;99.90
69031;DHT22;56083;48.774;8.942;2023-05-07T06:44:31;16.00;99.90
69031;DHT22;56083;48.774;8.942;2023-05-07T06:46:58;16.30;99.90
69031;DHT22;56083;48.774;8.942;2023-05-07T06:49:23;16.40;99.90
69031;DHT22;56083;48.774;8.942;2023-05-07T06:51:49;16.70;99.90
69031;DHT22;56083;48.774;8.942;2023-05-07T06:54:15;17.00;99.90
69031;DHT22;56083;48.774;8.942;2023-05-07T06:56:40;17.50;99.90
69031;DHT22;56083;48.774;8.942;2023-05-07T06:59:07;17.90;99.90
69031;DHT22;56083;48.774;8.942;2023-05-07T07:01:32;18.30;99.90
69031;DHT22;56083;48.774;8.942;2023-05-07T07:03:58;19.10;99.90
69031;DHT22;56083;48.774;8.942;2023-05-07T07:06:24;19.80;99.90
69031;DHT22;56083;48.774;8.942;2023-05-07T07:08:49;20.10;99.90
69031;DHT22;56083;48.774;8.942;2023-05-07T07:11:15;21.10;99.90
69031;DHT22;56083;48.774;8.942;2023-05-07T07:13:41;21.80;99.90
69031;DHT22;56083;48.774;8.942;2023-05-07T07:16:08;22.70;99.90
69031;DHT22;56083;48.774;8.942;2023-05-07T07:18:33;23.30;99.90
69031;DHT22;56083;48.774;8.942;2023-05-07T07:21:00;23.40;99.90
69031;DHT22;56083;48.774;8.942;2023-05-07T07:23:26;23.70;99.90
69031;DHT22;56083;48.774;8.942;2023-05-07T07:25:51;23.70;99.90
69031;DHT22;56083;48.774;8.942;2023-05-07T07:28:17;23.90;99.90
69031;DHT22;56083;48.774;8.942;2023-05-07T07:30:43;23.90;99.90
69031;DHT22;56083;48.774;8.942;2023-05-07T07:33:08;23.30;99.90
69031;DHT22;56083;48.774;8.942;2023-05-07T07:35:34;22.60;99.90
69031;DHT22;56083;48.774;8.942;2023-05-07T07:38:00;22.50;99.90
69031;DHT22;56083;48.774;8.942;2023-05-07T07:40:27;22.00;99.90
69031;DHT22;56083;48.774;8.942;2023-05-07T07:42:53;21.60;99.90
69031;DHT22;56083;48.774;8.942;2023-05-07T07:45:19;21.40;99.90
69031;DHT22;56083;48.774;8.942;2023-05-07T07:47:45;21.30;99.90
69031;DHT22;56083;48.774;8.942;2023-05-07T07:50:10;21.30;99.90
69031;DHT22;56083;48.774;8.942;2023-05-07T07:52:36;21.30;99.90
69031;DHT22;56083;48.774;8.942;2023-05-07T07:55:02;21.40;99.90
69031;DHT22;56083;48.774;8.942;2023-05-07T07:57:28;21.60;99.90
69031;DHT22;56083;48.774;8.942;2023-05-07T07:59:54;22.10;99.90
69031;DHT22;56083;48.774;8.942;2023-05-07T08:02:20;22.60;99.90
69031;DHT22;56083;48.774;8.942;2023-05-07T08:04:46;23.50;99.90
69031;DHT22;56083;48.774;8.942;2023-05-07T08:07:11;24.00;99.90
69031;DHT22;56083;48.774;8.942;2023-05-07T08:09:39;24.60;99.90
69031;DHT22;56083;48.774;8.942;2023-05-07T08:12:05;25.00;99.90
69031;DHT22;56083;48.774;8.942;2023-05-07T08:14:31;25.40;99.90
69031;DHT22;56083;48.774;8.942;2023-05-07T08:16:57;25.20;99.90
69031;DHT22;56083;48.774;8.942;2023-05-07T08:19:22;24.90;99.90
69031;DHT22;56083;48.774;8.942;2023-05-07T08:21:48;24.50;99.90
69031;DHT22;56083;48.774;8.942;2023-05-07T08:24:14;23.90;99.90
69031;DHT22;56083;48.774;8.942;2023-05-07T08:26:40;23.80;99.90
69031;DHT22;56083;48.774;8.942;2023-05-07T08:29:06;23.60;99.90
69031;DHT22;56083;48.774;8.942;2023-05-07T08:31:32;24.00;99.90
69031;DHT22;56083;48.774;8.942;2023-05-07T08:33:58;24.10;99.90
69031;DHT22;56083;48.774;8.942;2023-05-07T08:36:24;24.60;99.90
69031;DHT22;56083;48.774;8.942;2023-05-07T08:38:51;25.10;99.90
69031;DHT22;56083;48.774;8.942;2023-05-07T08:41:16;25.40;99.90
69031;DHT22;56083;48.774;8.942;2023-05-07T08:43:44;25.70;99.90
69031;DHT22;56083;48.774;8.942;2023-05-07T08:46:10;25.90;99.90
69031;DHT22;56083;48.774;8.942;2023-05-07T08:48:37;25.70;99.90
69031;DHT22;56083;48.774;8.942;2023-05-07T08:51:03;26.50;99.90
69031;DHT22;56083;48.774;8.942;2023-05-07T08:53:28;27.50;99.90
69031;DHT22;56083;48.774;8.942;2023-05-07T08:55:55;28.10;99.90
69031;DHT22;56083;48.774;8.942;2023-05-07T08:58:20;28.50;99.90
69031;DHT22;56083;48.774;8.942;2023-05-07T09:00:48;28.70;99.90
69031;DHT22;56083;48.774;8.942;2023-05-07T09:03:14;28.90;99.90
69031;DHT22;56083;48.774;8.942;2023-05-07T09:05:40;29.30;99.10
69031;DHT22;56083;48.774;8.942;2023-05-07T09:08:08;29.60;97.80
69031;DHT22;56083;48.774;8.942;2023-05-07T09:10:34;30.30;96.50
69031;DHT22;56083;48.774;8.942;2023-05-07T09:12:59;30.70;95.00
69031;DHT22;56083;48.774;8.942;2023-05-07T09:15:26;31.50;91.80
69031;DHT22;56083;48.774;8.942;2023-05-07T09:17:52;31.30;90.90
69031;DHT22;56083;48.774;8.942;2023-05-07T09:20:18;30.60;89.00
69031;DHT22;56083;48.774;8.942;2023-05-07T09:22:44;30.00;91.60
69031;DHT22;56083;48.774;8.942;2023-05-07T09:25:10;30.80;91.30
69031;DHT22;56083;48.774;8.942;2023-05-07T09:27:35;31.30;91.40
69031;DHT22;56083;48.774;8.942;2023-05-07T09:30:08;31.80;88.90
69031;DHT22;56083;48.774;8.942;2023-05-07T09:32:37;32.40;82.20
69031;DHT22;56083;48.774;8.942;2023-05-07T09:35:06;32.20;79.70
69031;DHT22;56083;48.774;8.942;2023-05-07T09:37:32;31.50;81.60
69031;DHT22;56083;48.774;8.942;2023-05-07T09:39:58;31.90;80.20
69031;DHT22;56083;48.774;8.942;2023-05-07T09:42:24;31.50;79.70
69031;DHT22;56083;48.774;8.942;2023-05-07T09:44:51;31.30;80.40
69031;DHT22;56083;48.774;8.942;2023-05-07T09:47:24;31.10;81.60
69031;DHT22;56083;48.774;8.942;2023-05-07T09:49:50;30.60;81.00
69031;DHT22;56083;48.774;8.942;2023-05-07T09:52:21;31.20;80.30
69031;DHT22;56083;48.774;8.942;2023-05-07T09:54:47;32.30;76.40
69031;DHT22;56083;48.774;8.942;2023-05-07T09:57:15;32.70;75.90
69031;DHT22;56083;48.774;8.942;2023-05-07T09:59:43;33.00;75.10
69031;DHT22;56083;48.774;8.942;2023-05-07T10:02:09;33.00;72.30
69031;DHT22;56083;48.774;8.942;2023-05-07T10:04:36;33.30;71.60
69031;DHT22;56083;48.774;8.942;2023-05-07T10:07:03;34.40;70.20
69031;DHT22;56083;48.774;8.942;2023-05-07T10:09:30;34.90;66.10
69031;DHT22;56083;48.774;8.942;2023-05-07T10:11:56;34.20;65.90
69031;DHT22;56083;48.774;8.942;2023-05-07T10:14:23;32.10;67.90
69031;DHT22;56083;48.774;8.942;2023-05-07T10:16:49;31.40;69.70
69031;DHT22;56083;48.774;8.942;2023-05-07T10:19:16;30.80;70.30
69031;DHT22;56083;48.774;8.942;2023-05-07T10:21:55;29.40;71.70
69031;DHT22;56083;48.774;8.942;2023-05-07T10:24:26;28.50;75.70
69031;DHT22;56083;48.774;8.942;2023-05-07T10:26:53;28.20;79.40
69031;DHT22;56083;48.774;8.942;2023-05-07T10:34:34;31.20;72.10
69031;DHT22;56083;48.774;8.942;2023-05-07T10:37:02;31.50;70.20
69031;DHT22;56083;48.774;8.942;2023-05-07T10:39:28;31.60;70.40
69031;DHT22;56083;48.774;8.942;2023-05-07T10:41:55;32.20;72.60
69031;DHT22;56083;48.774;8.942;2023-05-07T10:44:27;32.30;70.00
69031;DHT22;56083;48.774;8.942;2023-05-07T10:47:09;32.40;72.30
69031;DHT22;56083;48.774;8.942;2023-05-07T10:52:23;31.90;70.10
69031;DHT22;56083;48.774;8.942;2023-05-07T10:57:46;29.90;78.20
69031;DHT22;56083;48.774;8.942;2023-05-07T11:05:24;27.30;87.30
69031;DHT22;56083;48.774;8.942;2023-05-07T11:08:03;26.70;90.10
69031;DHT22;56083;48.774;8.942;2023-05-07T11:13:19;25.50;92.30
69031;DHT22;56083;48.774;8.942;2023-05-07T11:16:04;25.30;93.00
69031;DHT22;56083;48.774;8.942;2023-05-07T11:18:47;24.90;94.10
69031;DHT22;56083;48.774;8.942;2023-05-07T11:21:30;24.60;94.90
69031;DHT22;56083;48.774;8.942;2023-05-07T11:23:58;24.30;96.00
69031;DHT22;56083;48.774;8.942;2023-05-07T11:26:24;24.10;96.50
69031;DHT22;56083;48.774;8.942;2023-05-07T11:28:51;23.90;96.80
69031;DHT22;56083;48.774;8.942;2023-05-07T11:31:25;23.70;97.80
69031;DHT22;56083;48.774;8.942;2023-05-07T11:33:52;23.30;99.10
69031;DHT22;56083;48.774;8.942;2023-05-07T11:36:19;23.00;99.90
69031;DHT22;56083;48.774;8.942;2023-05-07T11:38:46;22.70;99.90
69031;DHT22;56083;48.774;8.942;2023-05-07T11:41:12;22.50;99.90
69031;DHT22;56083;48.774;8.942;2023-05-07T11:43:37;22.30;99.90
69031;DHT22;56083;48.774;8.942;2023-05-07T11:46:11;22.30;99.90
69031;DHT22;56083;48.774;8.942;2023-05-07T11:48:38;22.00;99.90
69031;DHT22;56083;48.774;8.942;2023-05-07T11:51:05;21.80;99.90
69031;DHT22;56083;48.774;8.942;2023-05-07T11:53:37;21.70;99.90
69031;DHT22;56083;48.774;8.942;2023-05-07T11:56:10;21.50;99.90
69031;DHT22;56083;48.774;8.942;2023-05-07T11:58:37;21.50;99.90
69031;DHT22;56083;48.774;8.942;2023-05-07T12:01:03;21.40;99.90
69031;DHT22;56083;48.774;8.942;2023-05-07T12:03:29;21.20;99.90
69031;DHT22;56083;48.774;8.942;2023-05-07T12:05:55;20.80;99.90
69031;DHT22;56083;48.774;8.942;2023-05-07T12:08:21;20.30;99.90
69031;DHT22;56083;48.774;8.942;2023-05-07T12:10:49;19.90;99.90
69031;DHT22;56083;48.774;8.942;2023-05-07T12:13:20;19.70;99.90
69031;DHT22;56083;48.774;8.942;2023-05-07T12:15:45;19.30;99.90
69031;DHT22;56083;48.774;8.942;2023-05-07T12:18:12;19.00;99.90
69031;DHT22;56083;48.774;8.942;2023-05-07T12:20:38;18.70;99.90
69031;DHT22;56083;48.774;8.942;2023-05-07T12:23:04;18.30;99.90
69031;DHT22;56083;48.774;8.942;2023-05-07T12:25:31;17.90;99.90
69031;DHT22;56083;48.774;8.942;2023-05-07T12:27:57;17.30;99.90
69031;DHT22;56083;48.774;8.942;2023-05-07T12:30:24;17.00;99.90
69031;DHT22;56083;48.774;8.942;2023-05-07T12:32:54;16.60;99.90
69031;DHT22;56083;48.774;8.942;2023-05-07T12:35:30;16.40;99.90
69031;DHT22;56083;48.774;8.942;2023-05-07T12:37:59;16.30;99.90
69031;DHT22;56083;48.774;8.942;2023-05-07T12:40:40;16.20;99.90
69031;DHT22;56083;48.774;8.942;2023-05-07T12:43:06;16.20;99.90
69031;DHT22;56083;48.774;8.942;2023-05-07T12:45:37;16.20;99.90
69031;DHT22;56083;48.774;8.942;2023-05-07T12:48:03;16.20;99.90
69031;DHT22;56083;48.774;8.942;2023-05-07T12:50:33;16.20;99.90
69031;DHT22;56083;48.774;8.942;2023-05-07T12:52:59;16.20;99.90
69031;DHT22;56083;48.774;8.942;2023-05-07T12:55:25;16.20;99.90
69031;DHT22;56083;48.774;8.942;2023-05-07T12:57:52;16.00;99.90
69031;DHT22;56083;48.774;8.942;2023-05-07T13:00:38;15.90;99.90
69031;DHT22;56083;48.774;8.942;2023-05-07T13:03:04;16.00;99.90
69031;DHT22;56083;48.774;8.942;2023-05-07T13:05:31;16.10;99.90
69031;DHT22;56083;48.774;8.942;2023-05-07T13:07:57;16.00;99.90
69031;DHT22;56083;48.774;8.942;2023-05-07T13:10:23;16.00;99.90
69031;DHT22;56083;48.774;8.942;2023-05-07T13:12:49;16.10;99.90
69031;DHT22;56083;48.774;8.942;2023-05-07T13:15:15;16.10;99.90
69031;DHT22;56083;48.774;8.942;2023-05-07T13:17:41;16.20;99.90
69031;DHT22;56083;48.774;8.942;2023-05-07T13:20:09;16.30;99.90
69031;DHT22;56083;48.774;8.942;2023-05-07T13:22:35;16.50;99.90
69031;DHT22;56083;48.774;8.942;2023-05-07T13:25:01;16.60;99.90
69031;DHT22;56083;48.774;8.942;2023-05-07T13:27:26;16.80;99.90
69031;DHT22;56083;48.774;8.942;2023-05-07T13:29:52;16.90;99.90
69031;DHT22;56083;48.774;8.942;2023-05-07T13:32:18;16.90;99.90
69031;DHT22;56083;48.774;8.942;2023-05-07T13:34:45;16.90;99.90
69031;DHT22;56083;48.774;8.942;2023-05-07T13:37:10;17.00;99.90
69031;DHT22;56083;48.774;8.942;2023-05-07T13:39:36;17.00;99.90
69031;DHT22;56083;48.774;8.942;2023-05-07T13:42:02;17.10;99.90
69031;DHT22;56083;48.774;8.942;2023-05-07T13:44:27;17.10;99.90
69031;DHT22;56083;48.774;8.942;2023-05-07T13:46:53;17.00;99.90
69031;DHT22;56083;48.774;8.942;2023-05-07T13:49:19;17.00;99.90
69031;DHT22;56083;48.774;8.942;2023-05-07T13:51:44;16.90;99.90
69031;DHT22;56083;48.774;8.942;2023-05-07T13:54:10;16.90;99.90
69031;DHT22;56083;48.774;8.942;2023-05-07T13:56:36;16.90;99.90
69031;DHT22;56083;48.774;8.942;2023-05-07T13:59:02;16.80;99.90
69031;DHT22;56083;48.774;8.942;2023-05-07T14:01:27;16.70;99.90
69031;DHT22;56083;48.774;8.942;2023-05-07T14:03:53;16.70;99.90
69031;DHT22;56083;48.774;8.942;2023-05-07T14:06:19;16.70;99.90
69031;DHT22;56083;48.774;8.942;2023-05-07T14:08:45;16.60;99.90
69031;DHT22;56083;48.774;8.942;2023-05-07T14:11:10;16.40;99.90
69031;DHT22;56083;48.774;8.942;2023-05-07T14:13:36;16.20;99.90
69031;DHT22;56083;48.774;8.942;2023-05-07T14:16:02;16.00;99.90
69031;DHT22;56083;48.774;8.942;2023-05-07T14:18:28;15.90;99.90
69031;DHT22;56083;48.774;8.942;2023-05-07T14:20:54;15.80;99.90
69031;DHT22;56083;48.774;8.942;2023-05-07T14:23:20;15.60;99.90
69031;DHT22;56083;48.774;8.942;2023-05-07T14:25:50;15.50;99.90
69031;DHT22;56083;48.774;8.942;2023-05-07T14:28:16;15.40;99.90
69031;DHT22;56083;48.774;8.942;2023-05-07T14:30:42;15.40;99.90
69031;DHT22;56083;48.774;8.942;2023-05-07T14:33:07;15.30;99.90
69031;DHT22;56083;48.774;8.942;2023-05-07T14:35:33;15.20;99.90
69031;DHT22;56083;48.774;8.942;2023-05-07T14:37:58;15.10;99.90
69031;DHT22;56083;48.774;8.942;2023-05-07T14:40:24;15.10;99.90
69031;DHT22;56083;48.774;8.942;2023-05-07T14:42:50;15.10;99.90
69031;DHT22;56083;48.774;8.942;2023-05-07T14:45:15;15.10;99.90
69031;DHT22;56083;48.774;8.942;2023-05-07T14:47:41;15.00;99.90
69031;DHT22;56083;48.774;8.942;2023-05-07T14:50:07;15.00;99.90
69031;DHT22;56083;48.774;8.942;2023-05-07T14:52:32;15.00;99.90
69031;DHT22;56083;48.774;8.942;2023-05-07T14:54:58;15.00;99.90
69031;DHT22;56083;48.774;8.942;2023-05-07T14:57:24;15.00;99.90
69031;DHT22;56083;48.774;8.942;2023-05-07T14:59:50;15.00;99.90
69031;DHT22;56083;48.774;8.942;2023-05-07T15:02:16;15.00;99.90
69031;DHT22;56083;48.774;8.942;2023-05-07T15:04:42;15.10;99.90
69031;DHT22;56083;48.774;8.942;2023-05-07T15:07:15;15.10;99.90
69031;DHT22;56083;48.774;8.942;2023-05-07T15:09:42;15.10;99.90
69031;DHT22;56083;48.774;8.942;2023-05-07T15:12:07;15.20;99.90
69031;DHT22;56083;48.774;8.942;2023-05-07T15:14:33;15.30;99.90
69031;DHT22;56083;48.774;8.942;2023-05-07T15:17:00;15.30;99.90
69031;DHT22;56083;48.774;8.942;2023-05-07T15:19:25;15.40;99.90
69031;DHT22;56083;48.774;8.942;2023-05-07T15:21:58;15.50;99.90
69031;DHT22;56083;48.774;8.942;2023-05-07T15:24:25;15.50;99.90
69031;DHT22;56083;48.774;8.942;2023-05-07T15:26:51;15.50;99.90
69031;DHT22;56083;48.774;8.942;2023-05-07T15:29:17;15.50;99.90
69031;DHT22;56083;48.774;8.942;2023-05-07T15:31:43;15.50;99.90
69031;DHT22;56083;48.774;8.942;2023-05-07T15:34:08;15.50;99.90
69031;DHT22;56083;48.774;8.942;2023-05-07T15:36:34;15.50;99.90
69031;DHT22;56083;48.774;8.942;2023-05-07T15:39:00;15.50;99.90
69031;DHT22;56083;48.774;8.942;2023-05-07T15:41:27;15.60;99.90
69031;DHT22;56083;48.774;8.942;2023-05-07T15:43:53;15.70;99.90
69031;DHT22;56083;48.774;8.942;2023-05-07T15:46:20;15.70;99.90
69031;DHT22;56083;48.774;8.942;2023-05-07T15:48:46;15.70;99.90